createdAt,value
2023-03-19T00:01:30.844Z,466
2023-03-19T00:02:30.639Z,487
2023-03-19T00:03:30.708Z,487
2023-03-19T00:04:30.681Z,487
2023-03-19T00:06:30.872Z,487
2023-03-19T00:07:30.707Z,473
2023-03-19T00:08:30.714Z,473
2023-03-19T00:09:30.627Z,473
2023-03-19T00:11:30.922Z,473
2023-03-19T00:12:30.740Z,464
2023-03-19T00:13:30.626Z,464
2023-03-19T00:14:30.677Z,464
2023-03-19T00:16:30.921Z,464
2023-03-19T00:17:30.660Z,460
2023-03-19T00:18:30.627Z,460
2023-03-19T00:19:30.659Z,460
2023-03-19T00:21:30.834Z,460
2023-03-19T00:22:30.643Z,500
2023-03-19T00:23:30.627Z,500
2023-03-19T00:24:30.727Z,500
2023-03-19T00:26:30.879Z,500
2023-03-19T00:27:30.685Z,473
2023-03-19T00:28:30.744Z,473
2023-03-19T00:29:30.678Z,473
2023-03-19T00:31:30.838Z,473
2023-03-19T00:32:30.708Z,493
2023-03-19T00:33:30.679Z,493
2023-03-19T00:34:30.694Z,493
2023-03-19T00:36:30.837Z,493
2023-03-19T00:37:30.645Z,464
2023-03-19T00:38:30.634Z,464
2023-03-19T00:39:30.659Z,464
2023-03-19T00:41:30.819Z,464
2023-03-19T00:42:30.688Z,480
2023-03-19T00:43:30.626Z,480
2023-03-19T00:44:30.679Z,480
2023-03-19T00:46:30.884Z,480
2023-03-19T00:47:30.654Z,473
2023-03-19T00:48:30.693Z,473
2023-03-19T00:49:30.635Z,473
2023-03-19T00:51:30.887Z,473
2023-03-19T00:52:30.677Z,464
2023-03-19T00:53:30.710Z,464
2023-03-19T00:54:30.682Z,464
2023-03-19T00:56:30.843Z,464
2023-03-19T00:57:30.720Z,493
2023-03-19T00:58:30.636Z,493
2023-03-19T00:59:30.653Z,493
2023-03-19T01:00:30.632Z,493
2023-03-19T01:01:30.857Z,493
2023-03-19T01:02:30.693Z,464
2023-03-19T01:03:30.756Z,464
2023-03-19T01:04:30.802Z,464
2023-03-19T01:06:30.827Z,464
2023-03-19T01:07:30.691Z,481
2023-03-19T01:08:30.716Z,481
2023-03-19T01:09:30.692Z,481
2023-03-19T01:10:30.723Z,481
2023-03-19T01:11:30.841Z,481
2023-03-19T01:12:30.639Z,551
2023-03-19T01:13:30.701Z,551
2023-03-19T01:14:30.638Z,551
2023-03-19T01:15:30.766Z,551
2023-03-19T01:16:30.857Z,551
2023-03-19T01:17:30.748Z,503
2023-03-19T01:18:30.635Z,503
2023-03-19T01:19:30.688Z,503
2023-03-19T01:21:30.815Z,503
2023-03-19T01:22:30.646Z,454
2023-03-19T01:23:30.721Z,454
2023-03-19T01:24:30.650Z,454
2023-03-19T01:26:30.844Z,454
2023-03-19T01:27:30.673Z,481
2023-03-19T01:28:30.643Z,481
2023-03-19T01:29:30.652Z,481
2023-03-19T01:31:30.863Z,481
2023-03-19T01:32:30.688Z,486
2023-03-19T01:33:30.666Z,486
2023-03-19T01:34:30.738Z,486
2023-03-19T01:36:30.839Z,486
2023-03-19T01:37:30.725Z,481
2023-03-19T01:38:30.734Z,481
2023-03-19T01:39:30.724Z,481
2023-03-19T01:41:30.870Z,481
2023-03-19T01:42:30.730Z,529
2023-03-19T01:43:30.729Z,529
2023-03-19T01:44:30.732Z,529
2023-03-19T01:46:31.061Z,529
2023-03-19T01:47:30.730Z,447
2023-03-19T01:48:30.728Z,447
2023-03-19T01:49:30.740Z,447
2023-03-19T01:51:30.865Z,447
2023-03-19T01:52:30.716Z,453
2023-03-19T01:53:30.738Z,453
2023-03-19T01:54:30.712Z,453
2023-03-19T01:56:30.874Z,453
2023-03-19T01:57:30.721Z,459
2023-03-19T01:58:30.733Z,459
2023-03-19T01:59:30.705Z,459
2023-03-19T02:01:30.911Z,459
2023-03-19T02:02:30.751Z,480
2023-03-19T02:03:30.728Z,480
2023-03-19T02:04:30.804Z,480
2023-03-19T02:06:30.918Z,480
2023-03-19T02:07:30.716Z,473
2023-03-19T02:08:30.732Z,473
2023-03-19T02:09:30.712Z,473
2023-03-19T02:11:30.873Z,473
2023-03-19T02:12:30.733Z,480
2023-03-19T02:13:30.797Z,480
2023-03-19T02:14:30.734Z,480
2023-03-19T02:16:30.886Z,480
2023-03-19T02:17:30.668Z,480
2023-03-19T02:18:30.656Z,480
2023-03-19T02:19:30.672Z,480
2023-03-19T02:21:30.851Z,480
2023-03-19T02:22:30.683Z,473
2023-03-19T02:23:30.654Z,473
2023-03-19T02:24:30.712Z,473
2023-03-19T02:26:30.843Z,473
2023-03-19T02:27:30.662Z,480
2023-03-19T02:28:30.659Z,480
2023-03-19T02:29:30.674Z,480
2023-03-19T02:31:30.975Z,480
2023-03-19T02:32:30.756Z,530
2023-03-19T02:33:30.720Z,530
2023-03-19T02:34:30.751Z,530
2023-03-19T02:36:30.844Z,530
2023-03-19T02:37:33.479Z,480
2023-03-19T02:38:30.760Z,480
2023-03-19T02:39:30.757Z,480
2023-03-19T02:41:30.866Z,480
2023-03-19T02:42:30.747Z,496
2023-03-19T02:43:30.757Z,496
2023-03-19T02:44:30.730Z,496
2023-03-19T02:46:30.919Z,496
2023-03-19T02:47:30.751Z,490
2023-03-19T02:48:30.725Z,490
2023-03-19T02:49:30.766Z,490
2023-03-19T02:51:30.879Z,490
2023-03-19T02:52:30.735Z,465
2023-03-19T02:53:30.722Z,465
2023-03-19T02:54:30.743Z,465
2023-03-19T02:56:30.873Z,465
2023-03-19T02:57:30.718Z,505
2023-03-19T02:58:30.747Z,505
2023-03-19T02:59:30.723Z,505
2023-03-19T03:01:30.929Z,505
2023-03-19T03:02:30.709Z,530
2023-03-19T03:03:30.730Z,530
2023-03-19T03:04:30.675Z,530
2023-03-19T03:06:30.885Z,530
2023-03-19T03:07:30.732Z,490
2023-03-19T03:08:30.737Z,490
2023-03-19T03:09:30.731Z,490
2023-03-19T03:11:30.885Z,490
2023-03-19T03:12:30.681Z,503
2023-03-19T03:13:30.683Z,503
2023-03-19T03:14:30.678Z,503
2023-03-19T03:16:30.993Z,503
2023-03-19T03:17:30.682Z,496
2023-03-19T03:18:30.734Z,496
2023-03-19T03:19:30.734Z,496
2023-03-19T03:21:30.860Z,496
2023-03-19T03:22:30.699Z,496
2023-03-19T03:23:30.760Z,496
2023-03-19T03:24:30.747Z,496
2023-03-19T03:26:30.886Z,496
2023-03-19T03:27:30.738Z,483
2023-03-19T03:28:30.768Z,483
2023-03-19T03:29:30.756Z,483
2023-03-19T03:31:30.928Z,483
2023-03-19T03:32:30.799Z,556
2023-03-19T03:33:30.772Z,556
2023-03-19T03:34:30.776Z,556
2023-03-19T03:36:30.973Z,556
2023-03-19T03:37:30.749Z,550
2023-03-19T03:38:30.742Z,550
2023-03-19T03:39:30.750Z,550
2023-03-19T03:41:30.914Z,550
2023-03-19T03:42:30.750Z,568
2023-03-19T03:43:30.701Z,568
2023-03-19T03:44:30.705Z,568
2023-03-19T03:46:30.898Z,568
2023-03-19T03:47:30.709Z,550
2023-03-19T03:48:30.700Z,550
2023-03-19T03:49:30.754Z,550
2023-03-19T03:51:30.873Z,550
2023-03-19T03:52:30.697Z,556
2023-03-19T03:53:30.714Z,556
2023-03-19T03:54:30.755Z,556
2023-03-19T03:56:30.904Z,556
2023-03-19T03:57:30.755Z,530
2023-03-19T03:58:30.798Z,530
2023-03-19T03:59:30.761Z,530
2023-03-19T04:01:30.965Z,530
2023-03-19T04:02:30.879Z,503
2023-03-19T04:03:30.813Z,503
2023-03-19T04:04:30.795Z,503
2023-03-19T04:06:30.939Z,503
2023-03-19T04:07:30.780Z,523
2023-03-19T04:08:30.761Z,523
2023-03-19T04:09:30.729Z,523
2023-03-19T04:11:30.885Z,523
2023-03-19T04:12:30.702Z,590
2023-03-19T04:13:30.715Z,590
2023-03-19T04:14:30.702Z,590
2023-03-19T04:16:30.944Z,590
2023-03-19T04:17:30.725Z,536
2023-03-19T04:18:30.734Z,536
2023-03-19T04:19:30.760Z,536
2023-03-19T04:21:30.884Z,536
2023-03-19T04:22:30.707Z,496
2023-03-19T04:23:30.763Z,496
2023-03-19T04:24:30.715Z,496
2023-03-19T04:26:30.887Z,496
2023-03-19T04:27:30.810Z,503
2023-03-19T04:28:30.781Z,503
2023-03-19T04:29:30.783Z,503
2023-03-19T04:31:30.933Z,503
2023-03-19T04:32:30.791Z,503
2023-03-19T04:33:30.770Z,503
2023-03-19T04:34:30.773Z,503
2023-03-19T04:36:30.984Z,503
2023-03-19T04:37:30.798Z,530
2023-03-19T04:38:30.772Z,530
2023-03-19T04:39:30.812Z,530
2023-03-19T04:41:30.919Z,530
2023-03-19T04:42:30.784Z,530
2023-03-19T04:43:30.793Z,530
2023-03-19T04:44:30.776Z,530
2023-03-19T04:46:30.911Z,530
2023-03-19T04:47:30.712Z,508
2023-03-19T04:48:30.737Z,508
2023-03-19T04:49:30.775Z,508
2023-03-19T04:51:30.932Z,508
2023-03-19T04:52:30.805Z,473
2023-03-19T04:53:30.775Z,473
2023-03-19T04:54:30.801Z,473
2023-03-19T04:56:30.905Z,473
2023-03-19T04:57:30.775Z,508
2023-03-19T04:58:30.785Z,508
2023-03-19T04:59:30.798Z,508
2023-03-19T05:01:30.941Z,508
2023-03-19T05:02:30.727Z,503
2023-03-19T05:03:30.789Z,503
2023-03-19T05:04:30.788Z,503
2023-03-19T05:06:30.913Z,503
2023-03-19T05:07:30.774Z,480
2023-03-19T05:08:30.737Z,480
2023-03-19T05:09:30.744Z,480
2023-03-19T05:11:30.927Z,480
2023-03-19T05:12:30.732Z,516
2023-03-19T05:13:30.730Z,516
2023-03-19T05:14:30.726Z,516
2023-03-19T05:16:30.924Z,516
2023-03-19T05:17:30.784Z,483
2023-03-19T05:18:30.816Z,483
2023-03-19T05:19:30.785Z,483
2023-03-19T05:21:30.983Z,483
2023-03-19T05:22:30.810Z,536
2023-03-19T05:23:30.781Z,536
2023-03-19T05:24:30.840Z,536
2023-03-19T05:26:30.946Z,536
2023-03-19T05:27:30.729Z,542
2023-03-19T05:28:30.742Z,542
2023-03-19T05:29:30.737Z,542
2023-03-19T05:31:30.969Z,542
2023-03-19T05:32:30.825Z,536
2023-03-19T05:33:30.729Z,536
2023-03-19T05:34:30.793Z,536
2023-03-19T05:36:30.936Z,536
2023-03-19T05:37:30.736Z,523
2023-03-19T05:38:30.789Z,523
2023-03-19T05:39:30.819Z,523
2023-03-19T05:41:30.954Z,523
2023-03-19T05:42:30.790Z,530
2023-03-19T05:43:30.742Z,530
2023-03-19T05:44:30.735Z,530
2023-03-19T05:46:30.967Z,530
2023-03-19T05:47:30.734Z,542
2023-03-19T05:48:30.752Z,542
2023-03-19T05:49:30.734Z,542
2023-03-19T05:51:30.938Z,542
2023-03-19T05:52:30.734Z,505
2023-03-19T05:53:30.747Z,505
2023-03-19T05:54:30.747Z,505
2023-03-19T05:56:30.941Z,505
2023-03-19T05:57:30.762Z,516
2023-03-19T05:58:30.754Z,516
2023-03-19T05:59:30.787Z,516
2023-03-19T06:01:31.026Z,516
2023-03-19T06:02:30.798Z,483
2023-03-19T06:03:30.852Z,483
2023-03-19T06:04:30.800Z,483
2023-03-19T06:06:30.947Z,483
2023-03-19T06:07:30.759Z,490
2023-03-19T06:08:30.739Z,490
2023-03-19T06:09:30.792Z,490
2023-03-19T06:11:30.952Z,490
2023-03-19T06:12:30.816Z,490
2023-03-19T06:13:30.790Z,490
2023-03-19T06:14:30.811Z,490
2023-03-19T06:16:31.013Z,490
2023-03-19T06:17:30.774Z,442
2023-03-19T06:18:30.766Z,442
2023-03-19T06:19:30.732Z,442
2023-03-19T06:21:30.939Z,442
2023-03-19T06:22:30.749Z,447
2023-03-19T06:23:30.749Z,447
2023-03-19T06:24:30.757Z,447
2023-03-19T06:26:30.935Z,447
2023-03-19T06:27:30.805Z,436
2023-03-19T06:28:30.815Z,436
2023-03-19T06:29:30.821Z,436
2023-03-19T06:31:31.059Z,436
2023-03-19T06:32:30.861Z,417
2023-03-19T06:33:30.847Z,417
2023-03-19T06:34:31.066Z,417
2023-03-19T06:36:31.017Z,417
2023-03-19T06:37:32.106Z,427
2023-03-19T06:38:32.255Z,427
2023-03-19T06:39:37.118Z,427
2023-03-19T06:41:31.208Z,427
2023-03-19T06:42:30.850Z,400
2023-03-19T06:43:30.765Z,400
2023-03-19T06:44:30.831Z,400
2023-03-19T06:46:30.952Z,400
2023-03-19T06:47:30.764Z,400
2023-03-19T06:48:30.848Z,400
2023-03-19T06:49:30.769Z,400
2023-03-19T06:51:30.969Z,400
2023-03-19T06:52:30.784Z,400
2023-03-19T06:53:30.822Z,400
2023-03-19T06:54:30.787Z,400
2023-03-19T06:56:31.001Z,400
2023-03-19T06:57:30.799Z,400
2023-03-19T06:58:30.793Z,400
2023-03-19T06:59:30.779Z,400
2023-03-19T07:01:31.028Z,400
2023-03-19T07:02:30.769Z,400
2023-03-19T07:03:30.803Z,400
2023-03-19T07:04:30.831Z,400
2023-03-19T07:06:31.019Z,400
2023-03-19T07:07:30.773Z,400
2023-03-19T07:08:30.770Z,400
2023-03-19T07:09:30.787Z,402
2023-03-19T07:11:30.948Z,421
2023-03-19T07:12:30.771Z,417
2023-03-19T07:13:30.832Z,417
2023-03-19T07:14:30.776Z,417
2023-03-19T07:16:31.054Z,417
2023-03-19T07:17:30.784Z,417
2023-03-19T07:18:30.847Z,417
2023-03-19T07:19:30.809Z,425
2023-03-19T07:21:02.582Z,518
2023-03-19T07:22:02.385Z,508
2023-03-19T07:23:02.313Z,492
2023-03-19T07:24:02.430Z,520
2023-03-19T07:26:02.490Z,550
2023-03-19T07:27:02.329Z,483
2023-03-19T07:28:02.370Z,400
2023-03-19T07:29:02.349Z,400
2023-03-19T07:31:03.357Z,520
2023-03-19T07:32:06.549Z,496
2023-03-19T07:33:04.393Z,486
2023-03-19T07:34:02.326Z,581
2023-03-19T07:36:02.535Z,498
2023-03-19T07:37:02.388Z,413
2023-03-19T07:38:02.334Z,406
2023-03-19T07:39:02.384Z,408
2023-03-19T07:41:03.091Z,406
2023-03-19T07:42:02.321Z,561
2023-03-19T07:43:02.334Z,537
2023-03-19T07:44:02.322Z,534
2023-03-19T07:46:02.604Z,427
2023-03-19T07:47:02.336Z,441
2023-03-19T07:48:02.347Z,488
2023-03-19T07:49:02.398Z,500
2023-03-19T07:51:02.540Z,421
2023-03-19T07:52:02.405Z,473
2023-03-19T07:53:02.331Z,434
2023-03-19T07:54:02.414Z,421
2023-03-19T07:56:02.582Z,423
2023-03-19T07:57:02.394Z,439
2023-03-19T07:58:02.404Z,436
2023-03-19T07:59:02.388Z,483
2023-03-19T08:01:02.547Z,502
2023-03-19T08:02:02.455Z,546
2023-03-19T08:03:02.435Z,516
2023-03-19T08:04:02.403Z,432
2023-03-19T08:06:02.541Z,432
2023-03-19T08:07:02.399Z,410
2023-03-19T08:08:02.398Z,508
2023-03-19T08:09:02.402Z,482
2023-03-19T08:11:02.563Z,508
2023-03-19T08:12:02.338Z,534
2023-03-19T08:13:02.346Z,524
2023-03-19T08:14:02.401Z,428
2023-03-19T08:16:04.805Z,428
2023-03-19T08:17:02.375Z,483
2023-03-19T08:18:02.469Z,471
2023-03-19T08:19:02.378Z,483
2023-03-19T08:21:02.543Z,422
2023-03-19T08:22:02.420Z,501
2023-03-19T08:23:02.411Z,428
2023-03-19T08:24:04.840Z,428
2023-03-19T08:26:02.624Z,482
2023-03-19T08:27:02.429Z,481
2023-03-19T08:28:02.547Z,497
2023-03-19T08:29:02.346Z,497
2023-03-19T08:31:03.797Z,428
2023-03-19T08:32:03.875Z,419
2023-03-19T08:33:02.369Z,502
2023-03-19T08:34:02.582Z,419
2023-03-19T08:36:02.573Z,419
2023-03-19T08:37:02.472Z,448
2023-03-19T08:38:02.355Z,476
2023-03-19T08:39:02.650Z,486
2023-03-19T08:41:02.560Z,488
2023-03-19T08:42:02.412Z,505
2023-03-19T08:43:02.420Z,527
2023-03-19T08:44:02.360Z,515
2023-03-19T08:46:02.638Z,523
2023-03-19T08:47:02.413Z,529
2023-03-19T08:48:02.417Z,524
2023-03-19T08:49:02.410Z,434
2023-03-19T08:51:02.586Z,414
2023-03-19T08:52:02.363Z,423
2023-03-19T08:53:02.418Z,418
2023-03-19T08:54:02.450Z,523
2023-03-19T08:56:02.536Z,502
2023-03-19T08:57:02.383Z,537
2023-03-19T08:58:02.393Z,563
2023-03-19T08:59:02.388Z,569
2023-03-19T09:01:02.592Z,478
2023-03-19T09:02:02.451Z,406
2023-03-19T09:03:02.424Z,427
2023-03-19T09:04:02.422Z,423
2023-03-19T09:06:02.647Z,444
2023-03-19T09:07:02.424Z,572
2023-03-19T09:08:02.428Z,451
2023-03-19T09:09:02.426Z,400
2023-03-19T09:11:02.587Z,496
2023-03-19T09:12:02.427Z,457
2023-03-19T09:13:02.430Z,455
2023-03-19T09:14:02.427Z,421
2023-03-19T09:16:02.605Z,434
2023-03-19T09:17:02.371Z,718
2023-03-19T09:18:02.362Z,534
2023-03-19T09:19:02.434Z,500
2023-03-19T09:21:02.632Z,481
2023-03-19T09:22:02.479Z,446
2023-03-19T09:23:02.465Z,450
2023-03-19T09:24:02.423Z,408
2023-03-19T09:26:02.562Z,493
2023-03-19T09:27:02.441Z,472
2023-03-19T09:28:02.432Z,480
2023-03-19T09:29:02.452Z,495
2023-03-19T09:31:02.625Z,586
2023-03-19T09:32:02.399Z,572
2023-03-19T09:33:02.416Z,536
2023-03-19T09:34:02.398Z,601
2023-03-19T09:36:02.639Z,604
2023-03-19T09:37:02.377Z,602
2023-03-19T09:38:02.441Z,526
2023-03-19T09:39:02.437Z,495
2023-03-19T09:41:02.593Z,540
2023-03-19T09:42:02.380Z,565
2023-03-19T09:43:02.386Z,567
2023-03-19T09:44:02.396Z,664
2023-03-19T09:46:02.574Z,596
2023-03-19T09:47:02.476Z,541
2023-03-19T09:48:02.388Z,632
2023-03-19T09:49:02.441Z,636
2023-03-19T09:51:02.579Z,678
2023-03-19T09:52:02.473Z,595
2023-03-19T09:53:02.399Z,637
2023-03-19T09:54:02.381Z,639
2023-03-19T09:56:02.587Z,637
2023-03-19T09:57:02.412Z,632
2023-03-19T09:58:02.393Z,568
2023-03-19T09:59:02.447Z,459
2023-03-19T10:01:02.612Z,410
2023-03-19T10:02:02.519Z,638
2023-03-19T10:03:03.830Z,545
2023-03-19T10:04:02.545Z,515
2023-03-19T10:06:02.605Z,847
2023-03-19T10:07:02.395Z,659
2023-03-19T10:08:02.448Z,676
2023-03-19T10:09:02.440Z,552
2023-03-19T10:11:02.599Z,612
2023-03-19T10:12:02.487Z,793
2023-03-19T10:13:02.458Z,774
2023-03-19T10:14:02.480Z,572
2023-03-19T10:16:02.619Z,708
2023-03-19T10:17:02.503Z,701
2023-03-19T10:18:02.488Z,721
2023-03-19T10:19:02.465Z,766
2023-03-19T10:21:02.614Z,715
2023-03-19T10:22:02.464Z,696
2023-03-19T10:23:02.463Z,700
2023-03-19T10:24:02.488Z,749
2023-03-19T10:26:02.605Z,644
2023-03-19T10:27:02.474Z,737
2023-03-19T10:28:02.403Z,761
2023-03-19T10:29:02.417Z,771
2023-03-19T10:31:02.826Z,751
2023-03-19T10:32:02.495Z,774
2023-03-19T10:33:02.492Z,657
2023-03-19T10:34:02.435Z,813
2023-03-19T10:36:02.624Z,639
2023-03-19T10:37:02.415Z,781
2023-03-19T10:38:02.433Z,799
2023-03-19T10:39:02.418Z,612
2023-03-19T10:41:02.606Z,770
2023-03-19T10:42:02.435Z,781
2023-03-19T10:43:02.431Z,792
2023-03-19T10:44:02.418Z,693
2023-03-19T10:46:02.671Z,813
2023-03-19T10:47:02.445Z,808
2023-03-19T10:48:02.505Z,649
2023-03-19T10:49:02.501Z,611
2023-03-19T10:51:02.627Z,791
2023-03-19T10:52:02.480Z,748
2023-03-19T10:53:02.476Z,620
2023-03-19T10:54:02.485Z,556
2023-03-19T10:56:02.634Z,627
2023-03-19T10:57:02.503Z,604
2023-03-19T10:58:02.500Z,827
2023-03-19T10:59:02.498Z,812
2023-03-19T11:01:02.654Z,599
2023-03-19T11:02:02.488Z,786
2023-03-19T11:03:02.426Z,603
2023-03-19T11:04:02.485Z,616
2023-03-19T11:06:02.618Z,580
2023-03-19T11:07:02.459Z,796
2023-03-19T11:08:02.453Z,820
2023-03-19T11:09:02.435Z,805
2023-03-19T11:11:02.618Z,805
2023-03-19T11:12:02.488Z,701
2023-03-19T11:13:02.430Z,877
2023-03-19T11:14:02.431Z,1085
2023-03-19T11:16:02.615Z,852
2023-03-19T11:17:04.542Z,642
2023-03-19T11:18:02.489Z,838
2023-03-19T11:19:02.539Z,820
2023-03-19T11:21:02.641Z,603
2023-03-19T11:22:02.490Z,857
2023-03-19T11:23:02.503Z,821
2023-03-19T11:24:02.530Z,853
2023-03-19T11:26:02.643Z,692
2023-03-19T11:27:02.499Z,843
2023-03-19T11:28:02.517Z,981
2023-03-19T11:29:02.500Z,708
2023-03-19T11:31:02.654Z,733
2023-03-19T11:32:15.147Z,826
2023-03-19T11:33:02.590Z,853
2023-03-19T11:34:02.440Z,690
2023-03-19T11:36:02.658Z,838
2023-03-19T11:37:02.441Z,740
2023-03-19T11:38:02.500Z,886
2023-03-19T11:39:02.501Z,741
2023-03-19T11:41:02.644Z,1077
2023-03-19T11:42:02.469Z,765
2023-03-19T11:43:02.536Z,1038
2023-03-19T11:44:02.499Z,1029
2023-03-19T11:46:02.743Z,1051
2023-03-19T11:47:02.509Z,718
2023-03-19T11:48:02.535Z,904
2023-03-19T11:49:02.558Z,851
2023-03-19T11:51:02.662Z,867
2023-03-19T11:52:02.471Z,696
2023-03-19T11:53:02.511Z,889
2023-03-19T11:54:02.474Z,708
2023-03-19T11:56:02.667Z,981
2023-03-19T11:57:02.549Z,718
2023-03-19T11:58:02.550Z,915
2023-03-19T11:59:02.519Z,714
2023-03-19T12:01:02.715Z,946
2023-03-19T12:02:02.517Z,745
2023-03-19T12:03:02.524Z,976
2023-03-19T12:04:02.471Z,748
2023-03-19T12:06:02.657Z,787
2023-03-19T12:07:02.554Z,1007
2023-03-19T12:08:02.506Z,1091
2023-03-19T12:09:02.516Z,1099
2023-03-19T12:11:02.638Z,777
2023-03-19T12:12:02.473Z,769
2023-03-19T12:13:02.502Z,1018
2023-03-19T12:14:02.530Z,1043
2023-03-19T12:16:02.696Z,1105
2023-03-19T12:17:02.470Z,676
2023-03-19T12:18:02.532Z,1185
2023-03-19T12:19:02.556Z,915
2023-03-19T12:21:02.680Z,714
2023-03-19T12:22:02.568Z,926
2023-03-19T12:23:02.537Z,627
2023-03-19T12:24:02.546Z,847
2023-03-19T12:26:02.682Z,896
2023-03-19T12:27:02.471Z,782
2023-03-19T12:28:02.470Z,1088
2023-03-19T12:29:04.086Z,847
2023-03-19T12:31:02.766Z,1130
2023-03-19T12:32:02.540Z,1061
2023-03-19T12:33:02.522Z,825
2023-03-19T12:34:02.534Z,986
2023-03-19T12:36:02.726Z,986
2023-03-19T12:37:02.555Z,816
2023-03-19T12:38:02.547Z,1032
2023-03-19T12:39:02.537Z,1046
2023-03-19T12:41:02.708Z,785
2023-03-19T12:42:02.550Z,1277
2023-03-19T12:43:02.538Z,886
2023-03-19T12:44:02.496Z,1193
2023-03-19T12:46:02.696Z,1180
2023-03-19T12:47:02.632Z,887
2023-03-19T12:48:02.593Z,1185
2023-03-19T12:49:02.590Z,1176
2023-03-19T12:51:02.702Z,1102
2023-03-19T12:52:02.571Z,672
2023-03-19T12:53:02.539Z,1083
2023-03-19T12:54:02.552Z,855
2023-03-19T12:56:02.742Z,1096
2023-03-19T12:57:02.487Z,993
2023-03-19T12:58:02.509Z,1045
2023-03-19T12:59:02.536Z,827
2023-03-19T13:01:02.716Z,1663
2023-03-19T13:02:02.658Z,919
2023-03-19T13:03:02.582Z,991
2023-03-19T13:04:02.555Z,863
2023-03-19T13:06:02.709Z,758
2023-03-19T13:07:02.558Z,1132
2023-03-19T13:08:02.564Z,1090
2023-03-19T13:09:02.499Z,868
2023-03-19T13:11:02.776Z,1204
2023-03-19T13:12:02.500Z,1062
2023-03-19T13:13:02.520Z,812
2023-03-19T13:14:02.507Z,1004
2023-03-19T13:16:02.726Z,829
2023-03-19T13:17:02.499Z,1040
2023-03-19T13:18:02.507Z,1057
2023-03-19T13:19:02.519Z,1068
2023-03-19T13:21:02.705Z,1205
2023-03-19T13:22:02.548Z,933
2023-03-19T13:23:02.571Z,1153
2023-03-19T13:24:02.565Z,933
2023-03-19T13:26:02.713Z,1286
2023-03-19T13:27:02.571Z,1165
2023-03-19T13:28:02.570Z,1207
2023-03-19T13:29:02.512Z,808
2023-03-19T13:31:02.813Z,1018
2023-03-19T13:32:02.517Z,1246
2023-03-19T13:33:02.548Z,1008
2023-03-19T13:34:02.519Z,1320
2023-03-19T13:36:02.722Z,1352
2023-03-19T13:37:02.514Z,905
2023-03-19T13:38:02.541Z,1188
2023-03-19T13:39:02.548Z,1207
2023-03-19T13:41:02.776Z,1233
2023-03-19T13:42:02.624Z,960
2023-03-19T13:43:02.580Z,1270
2023-03-19T13:44:02.568Z,1246
2023-03-19T13:46:02.694Z,863
2023-03-19T13:47:02.577Z,1275
2023-03-19T13:48:11.244Z,1257
2023-03-19T13:49:02.590Z,971
2023-03-19T13:51:02.777Z,986
2023-03-19T13:52:02.595Z,1257
2023-03-19T13:53:02.598Z,1244
2023-03-19T13:54:02.599Z,852
2023-03-19T13:56:02.742Z,1191
2023-03-19T13:57:02.560Z,1521
2023-03-19T13:58:02.529Z,891
2023-03-19T13:59:02.534Z,899
2023-03-19T14:01:02.746Z,1113
2023-03-19T14:02:02.579Z,977
2023-03-19T14:03:02.544Z,1248
2023-03-19T14:04:02.611Z,1029
2023-03-19T14:06:02.780Z,1255
2023-03-19T14:07:02.537Z,933
2023-03-19T14:08:02.544Z,1244
2023-03-19T14:09:02.580Z,1288
2023-03-19T14:11:02.752Z,1288
2023-03-19T14:12:02.540Z,972
2023-03-19T14:13:02.605Z,1209
2023-03-19T14:14:02.558Z,1205
2023-03-19T14:16:02.869Z,1084
2023-03-19T14:17:02.597Z,1199
2023-03-19T14:18:02.635Z,910
2023-03-19T14:19:02.695Z,1244
2023-03-19T14:21:06.453Z,1079
2023-03-19T14:22:02.637Z,1227
2023-03-19T14:23:02.655Z,1317
2023-03-19T14:24:02.541Z,1101
2023-03-19T14:26:02.736Z,982
2023-03-19T14:27:02.540Z,1361
2023-03-19T14:28:02.609Z,1400
2023-03-19T14:29:02.671Z,1091
2023-03-19T14:31:02.809Z,1421
2023-03-19T14:32:02.663Z,1094
2023-03-19T14:33:02.626Z,1397
2023-03-19T14:34:02.628Z,1094
2023-03-19T14:36:02.768Z,1373
2023-03-19T14:37:02.557Z,1504
2023-03-19T14:38:02.572Z,1537
2023-03-19T14:39:02.615Z,1113
2023-03-19T14:41:02.808Z,1387
2023-03-19T14:42:02.646Z,1403
2023-03-19T14:43:02.632Z,1436
2023-03-19T14:44:02.625Z,1099
2023-03-19T14:46:02.822Z,1465
2023-03-19T14:47:02.620Z,1489
2023-03-19T14:48:02.564Z,1558
2023-03-19T14:49:02.572Z,1130
2023-03-19T14:51:02.746Z,1461
2023-03-19T14:52:02.581Z,1168
2023-03-19T14:53:02.562Z,1622
2023-03-19T14:54:02.615Z,1188
2023-03-19T14:56:02.788Z,1458
2023-03-19T14:57:02.558Z,1343
2023-03-19T14:58:02.569Z,1387
2023-03-19T14:59:02.566Z,1088
2023-03-19T15:01:02.810Z,1431
2023-03-19T15:02:02.646Z,1441
2023-03-19T15:03:02.629Z,956
2023-03-19T15:04:02.634Z,1429
2023-03-19T15:06:02.792Z,1077
2023-03-19T15:07:02.659Z,1416
2023-03-19T15:08:02.574Z,1259
2023-03-19T15:09:02.664Z,976
2023-03-19T15:11:02.784Z,1018
2023-03-19T15:12:02.647Z,1441
2023-03-19T15:13:02.638Z,1426
2023-03-19T15:14:02.665Z,1090
2023-03-19T15:16:02.755Z,1465
2023-03-19T15:17:02.673Z,1453
2023-03-19T15:18:04.032Z,1061
2023-03-19T15:19:02.613Z,1343
2023-03-19T15:21:02.779Z,1409
2023-03-19T15:22:02.623Z,1191
2023-03-19T15:23:02.588Z,1561
2023-03-19T15:24:02.597Z,1510
2023-03-19T15:32:09.998Z,1527
2023-03-19T15:33:14.608Z,1580
2023-03-19T15:34:03.270Z,1182
2023-03-19T15:35:03.282Z,1524
2023-03-19T15:36:03.182Z,1489
2023-03-19T15:37:03.399Z,1524
2023-03-19T15:38:05.461Z,1436
2023-03-19T15:39:09.056Z,1179
2023-03-19T15:40:04.092Z,1439
2023-03-19T15:41:35.485Z,1464
2023-03-19T15:42:35.225Z,1617
2023-03-19T15:43:35.255Z,1495
2023-03-19T15:44:35.222Z,1130
2023-03-19T15:46:35.880Z,1750
2023-03-19T15:47:35.618Z,1558
2023-03-19T15:48:36.982Z,1688
2023-03-19T15:49:35.840Z,2152
2023-03-19T15:51:50.955Z,1670
2023-03-19T15:53:12.121Z,1371
2023-03-19T15:54:10.472Z,1345
2023-03-19T15:55:10.462Z,1364
2023-03-19T15:56:10.291Z,1424
2023-03-19T15:58:10.601Z,1255
2023-03-19T15:59:10.382Z,1240
2023-03-19T16:00:10.305Z,1570
2023-03-19T16:01:10.421Z,1216
2023-03-19T16:03:11.688Z,1135
2023-03-19T16:05:06.936Z,1570
2023-03-19T16:06:27.135Z,1819
2023-03-19T16:07:25.456Z,1453
2023-03-19T16:08:23.495Z,1389
2023-03-19T16:09:23.428Z,1504
2023-03-19T16:11:23.692Z,1453
2023-03-19T16:12:23.493Z,1540
2023-03-19T16:13:23.495Z,1910
2023-03-19T16:14:23.432Z,1116
2023-03-19T16:16:23.722Z,1091
2023-03-19T16:17:23.444Z,1324
2023-03-19T16:18:23.442Z,1331
2023-03-19T16:19:23.454Z,1458
2023-03-19T16:21:23.648Z,1003
2023-03-19T16:22:23.516Z,1039
2023-03-19T16:23:23.466Z,1397
2023-03-19T16:24:23.435Z,1065
2023-03-19T16:26:23.660Z,1295
2023-03-19T16:27:23.506Z,1347
2023-03-19T16:28:23.507Z,1343
2023-03-19T16:29:23.486Z,1095
2023-03-19T16:31:23.714Z,1320
2023-03-19T16:32:23.498Z,1527
2023-03-19T16:33:23.505Z,1295
2023-03-19T16:34:23.504Z,1153
2023-03-19T16:36:23.652Z,1329
2023-03-19T16:37:23.504Z,941
2023-03-19T16:38:23.444Z,952
2023-03-19T16:39:23.457Z,1186
2023-03-19T16:41:23.622Z,955
2023-03-19T16:42:23.470Z,967
2023-03-19T16:43:23.450Z,1199
2023-03-19T16:44:23.437Z,928
2023-03-19T16:46:23.658Z,867
2023-03-19T16:47:23.496Z,758
2023-03-19T16:48:23.438Z,495
2023-03-19T16:49:23.536Z,960
2023-03-19T16:51:23.617Z,895
2023-03-19T16:52:23.539Z,827
2023-03-19T16:53:23.454Z,988
2023-03-19T16:54:23.505Z,966
2023-03-19T16:56:23.669Z,913
2023-03-19T16:57:23.507Z,807
2023-03-19T16:58:23.454Z,616
2023-03-19T16:59:23.469Z,594
2023-03-19T17:01:23.709Z,675
2023-03-19T17:02:23.536Z,507
2023-03-19T17:03:23.499Z,751
2023-03-19T17:04:23.541Z,578
2023-03-19T17:06:23.647Z,435
2023-03-19T17:07:23.520Z,435